sensor_id;sensor_type;location;lat;lon;timestamp;pressure;altitude;pressure_sealevel;temperature;humidity
12219;BME280;6172;42.646;23.344;2023-05-19T00:00:54;94854.78;;;9.99;100.00
12219;BME280;6172;42.646;23.344;2023-05-19T00:03:21;94854.72;;;10.06;100.00
12219;BME280;6172;42.646;23.344;2023-05-19T00:05:49;94846.13;;;10.07;100.00
12219;BME280;6172;42.646;23.344;2023-05-19T00:08:21;94846.19;;;10.04;100.00
12219;BME280;6172;42.646;23.344;2023-05-19T00:10:49;94855.44;;;10.10;100.00
12219;BME280;6172;42.646;23.344;2023-05-19T00:13:16;94846.63;;;9.99;100.00
12219;BME280;6172;42.646;23.344;2023-05-19T00:15:44;94842.38;;;9.94;100.00
12219;BME280;6172;42.646;23.344;2023-05-19T00:18:11;94836.84;;;10.01;100.00
12219;BME280;6172;42.646;23.344;2023-05-19T00:20:38;94837.53;;;10.12;100.00
12219;BME280;6172;42.646;23.344;2023-05-19T00:23:05;94832.16;;;10.05;100.00
12219;BME280;6172;42.646;23.344;2023-05-19T00:25:33;94838.25;;;10.16;100.00
12219;BME280;6172;42.646;23.344;2023-05-19T00:28:00;94827.47;;;10.06;100.00
12219;BME280;6172;42.646;23.344;2023-05-19T00:30:26;94830.97;;;10.06;100.00
12219;BME280;6172;42.646;23.344;2023-05-19T00:32:53;94825.06;;;10.11;100.00
12219;BME280;6172;42.646;23.344;2023-05-19T00:35:20;94812.09;;;9.89;100.00
12219;BME280;6172;42.646;23.344;2023-05-19T00:37:47;94819.84;;;9.94;100.00
12219;BME280;6172;42.646;23.344;2023-05-19T00:40:14;94832.00;;;9.82;100.00
12219;BME280;6172;42.646;23.344;2023-05-19T00:42:43;94836.91;;;9.98;100.00
12219;BME280;6172;42.646;23.344;2023-05-19T00:45:10;94823.34;;;9.91;100.00
12219;BME280;6172;42.646;23.344;2023-05-19T00:47:36;94809.72;;;9.94;100.00
12219;BME280;6172;42.646;23.344;2023-05-19T00:50:04;94820.13;;;10.03;100.00
12219;BME280;6172;42.646;23.344;2023-05-19T00:52:31;94824.84;;;9.99;100.00
12219;BME280;6172;42.646;23.344;2023-05-19T00:54:58;94811.19;;;10.02;100.00
12219;BME280;6172;42.646;23.344;2023-05-19T00:57:25;94811.91;;;10.06;100.00
12219;BME280;6172;42.646;23.344;2023-05-19T00:59:54;94811.88;;;10.10;100.00
12219;BME280;6172;42.646;23.344;2023-05-19T01:02:21;94809.72;;;9.94;100.00
12219;BME280;6172;42.646;23.344;2023-05-19T01:04:49;94817.06;;;9.97;100.00
12219;BME280;6172;42.646;23.344;2023-05-19T01:07:17;94815.63;;;9.86;100.00
12219;BME280;6172;42.646;23.344;2023-05-19T01:09:46;94809.47;;;9.78;100.00
12219;BME280;6172;42.646;23.344;2023-05-19T01:12:13;94822.19;;;9.88;100.00
12219;BME280;6172;42.646;23.344;2023-05-19T01:14:40;94818.03;;;9.77;100.00
12219;BME280;6172;42.646;23.344;2023-05-19T01:17:13;94823.97;;;9.68;100.00
12219;BME280;6172;42.646;23.344;2023-05-19T01:19:56;94829.78;;;9.70;100.00
12219;BME280;6172;42.646;23.344;2023-05-19T01:22:50;94824.66;;;9.76;100.00
12219;BME280;6172;42.646;23.344;2023-05-19T01:25:51;94813.06;;;9.68;100.00
12219;BME280;6172;42.646;23.344;2023-05-19T01:28:43;94817.06;;;9.60;100.00
12219;BME280;6172;42.646;23.344;2023-05-19T01:31:18;94823.16;;;9.71;100.00
12219;BME280;6172;42.646;23.344;2023-05-19T01:33:48;94815.47;;;9.63;100.00
12219;BME280;6172;42.646;23.344;2023-05-19T01:36:18;94817.69;;;9.75;100.00
12219;BME280;6172;42.646;23.344;2023-05-19T01:38:49;94812.97;;;9.79;100.00
12219;BME280;6172;42.646;23.344;2023-05-19T01:41:17;94809.19;;;9.69;100.00
12219;BME280;6172;42.646;23.344;2023-05-19T01:43:44;94822.16;;;9.55;100.00
12219;BME280;6172;42.646;23.344;2023-05-19T01:46:12;94827.59;;;9.55;100.00
12219;BME280;6172;42.646;23.344;2023-05-19T01:48:41;94823.44;;;9.43;100.00
12219;BME280;6172;42.646;23.344;2023-05-19T01:51:08;94816.50;;;9.35;100.00
12219;BME280;6172;42.646;23.344;2023-05-19T01:53:35;94832.75;;;9.46;100.00
12219;BME280;6172;42.646;23.344;2023-05-19T01:56:05;94836.72;;;9.38;100.00
12219;BME280;6172;42.646;23.344;2023-05-19T01:58:37;94838.56;;;9.48;100.00
12219;BME280;6172;42.646;23.344;2023-05-19T02:01:15;94835.84;;;9.48;100.00
12219;BME280;6172;42.646;23.344;2023-05-19T02:03:56;94832.81;;;9.39;100.00
12219;BME280;6172;42.646;23.344;2023-05-19T02:06:31;94835.03;;;9.51;100.00
12219;BME280;6172;42.646;23.344;2023-05-19T02:09:04;94837.94;;;9.30;100.00
12219;BME280;6172;42.646;23.344;2023-05-19T02:11:36;94837.63;;;9.21;100.00
12219;BME280;6172;42.646;23.344;2023-05-19T02:14:07;94845.34;;;9.26;100.00
12219;BME280;6172;42.646;23.344;2023-05-19T02:16:35;94843.69;;;9.39;100.00
12219;BME280;6172;42.646;23.344;2023-05-19T02:19:05;94837.78;;;9.44;100.00
12219;BME280;6172;42.646;23.344;2023-05-19T02:21:32;94837.06;;;9.40;100.00
12219;BME280;6172;42.646;23.344;2023-05-19T02:23:59;94840.91;;;9.46;100.00
12219;BME280;6172;42.646;23.344;2023-05-19T02:26:26;94838.66;;;9.37;100.00
12219;BME280;6172;42.646;23.344;2023-05-19T02:28:52;94831.66;;;9.36;100.00
12219;BME280;6172;42.646;23.344;2023-05-19T02:31:19;94849.13;;;9.39;100.00
12219;BME280;6172;42.646;23.344;2023-05-19T02:33:46;94839.94;;;9.22;100.00
12219;BME280;6172;42.646;23.344;2023-05-19T02:36:14;94855.50;;;9.18;100.00
12219;BME280;6172;42.646;23.344;2023-05-19T02:38:41;94843.06;;;9.21;100.00
12219;BME280;6172;42.646;23.344;2023-05-19T02:41:08;94846.53;;;9.21;100.00
12219;BME280;6172;42.646;23.344;2023-05-19T02:43:35;94846.53;;;9.21;100.00
12219;BME280;6172;42.646;23.344;2023-05-19T02:46:01;94858.72;;;9.06;100.00
12219;BME280;6172;42.646;23.344;2023-05-19T02:48:28;94853.56;;;9.19;100.00
12219;BME280;6172;42.646;23.344;2023-05-19T02:50:55;94852.88;;;9.08;100.00
12219;BME280;6172;42.646;23.344;2023-05-19T02:53:23;94854.78;;;9.11;100.00
12219;BME280;6172;42.646;23.344;2023-05-19T02:55:50;94854.75;;;9.14;100.00
12219;BME280;6172;42.646;23.344;2023-05-19T02:58:17;94857.88;;;9.13;100.00
12219;BME280;6172;42.646;23.344;2023-05-19T03:00:44;94854.84;;;9.04;100.00
12219;BME280;6172;42.646;23.344;2023-05-19T03:03:11;94858.66;;;9.13;100.00
12219;BME280;6172;42.646;23.344;2023-05-19T03:05:39;94854.81;;;9.07;100.00
12219;BME280;6172;42.646;23.344;2023-05-19T03:08:06;94860.31;;;8.97;100.00
12219;BME280;6172;42.646;23.344;2023-05-19T03:10:35;94862.22;;;9.03;100.00
12219;BME280;6172;42.646;23.344;2023-05-19T03:13:01;94871.19;;;9.00;100.00
12219;BME280;6172;42.646;23.344;2023-05-19T03:15:28;94861.88;;;8.98;100.00
12219;BME280;6172;42.646;23.344;2023-05-19T03:17:56;94859.56;;;8.96;100.00
12219;BME280;6172;42.646;23.344;2023-05-19T03:20:23;94860.31;;;9.00;100.00
12219;BME280;6172;42.646;23.344;2023-05-19T03:22:50;94873.13;;;9.00;100.00
12219;BME280;6172;42.646;23.344;2023-05-19T03:25:17;94868.81;;;9.09;100.00
12219;BME280;6172;42.646;23.344;2023-05-19T03:27:45;94874.59;;;9.15;100.00
12219;BME280;6172;42.646;23.344;2023-05-19T03:30:12;94874.22;;;9.09;100.00
12219;BME280;6172;42.646;23.344;2023-05-19T03:32:39;94867.19;;;9.15;100.00
12219;BME280;6172;42.646;23.344;2023-05-19T03:35:07;94869.44;;;9.24;100.00
12219;BME280;6172;42.646;23.344;2023-05-19T03:37:34;94872.16;;;9.24;100.00
12219;BME280;6172;42.646;23.344;2023-05-19T03:40:01;94874.47;;;9.25;100.00
12219;BME280;6172;42.646;23.344;2023-05-19T03:42:29;94866.38;;;9.22;100.00
12219;BME280;6172;42.646;23.344;2023-05-19T03:44:58;94855.81;;;9.27;100.00
12219;BME280;6172;42.646;23.344;2023-05-19T03:47:24;94867.03;;;9.33;100.00
12219;BME280;6172;42.646;23.344;2023-05-19T03:49:51;94875.13;;;9.43;100.00
12219;BME280;6172;42.646;23.344;2023-05-19T03:52:18;94875.47;;;9.49;100.00
12219;BME280;6172;42.646;23.344;2023-05-19T03:54:45;94869.97;;;9.56;100.00
12219;BME280;6172;42.646;23.344;2023-05-19T03:57:12;94876.19;;;9.53;100.00
12219;BME280;6172;42.646;23.344;2023-05-19T03:59:40;94865.19;;;9.67;100.00
12219;BME280;6172;42.646;23.344;2023-05-19T04:02:09;94861.31;;;9.64;100.00
12219;BME280;6172;42.646;23.344;2023-05-19T04:04:36;94866.69;;;9.75;100.00
12219;BME280;6172;42.646;23.344;2023-05-19T04:07:03;94875.66;;;9.72;100.00
12219;BME280;6172;42.646;23.344;2023-05-19T04:09:30;94875.50;;;9.86;100.00
12219;BME280;6172;42.646;23.344;2023-05-19T04:11:59;94873.44;;;10.00;100.00
12219;BME280;6172;42.646;23.344;2023-05-19T04:14:27;94869.41;;;10.15;100.00
12219;BME280;6172;42.646;23.344;2023-05-19T04:16:53;94875.91;;;10.25;100.00
12219;BME280;6172;42.646;23.344;2023-05-19T04:19:24;94871.22;;;10.25;100.00
12219;BME280;6172;42.646;23.344;2023-05-19T04:21:50;94872.16;;;10.12;100.00
12219;BME280;6172;42.646;23.344;2023-05-19T04:24:17;94884.44;;;10.27;100.00
12219;BME280;6172;42.646;23.344;2023-05-19T04:26:44;94877.41;;;10.29;100.00
12219;BME280;6172;42.646;23.344;2023-05-19T04:29:11;94872.06;;;10.53;100.00
12219;BME280;6172;42.646;23.344;2023-05-19T04:31:42;94876.19;;;10.64;100.00
12219;BME280;6172;42.646;23.344;2023-05-19T04:34:09;94880.69;;;10.78;100.00
12219;BME280;6172;42.646;23.344;2023-05-19T04:36:37;94890.81;;;10.77;100.00
12219;BME280;6172;42.646;23.344;2023-05-19T04:39:04;94875.91;;;10.85;100.00
12219;BME280;6172;42.646;23.344;2023-05-19T04:41:34;94879.50;;;11.05;100.00
12219;BME280;6172;42.646;23.344;2023-05-19T04:44:04;94882.63;;;11.07;100.00
12219;BME280;6172;42.646;23.344;2023-05-19T04:46:31;94880.97;;;11.13;100.00
12219;BME280;6172;42.646;23.344;2023-05-19T04:48:58;94879.56;;;11.28;100.00
12219;BME280;6172;42.646;23.344;2023-05-19T04:51:27;94875.06;;;11.45;100.00
12219;BME280;6172;42.646;23.344;2023-05-19T04:53:57;94881.06;;;11.82;100.00
12219;BME280;6172;42.646;23.344;2023-05-19T04:56:24;94875.41;;;11.93;100.00
12219;BME280;6172;42.646;23.344;2023-05-19T04:58:51;94869.59;;;12.10;100.00
12219;BME280;6172;42.646;23.344;2023-05-19T05:01:18;94871.28;;;12.04;100.00
12219;BME280;6172;42.646;23.344;2023-05-19T05:03:46;94869.47;;;12.17;100.00
12219;BME280;6172;42.646;23.344;2023-05-19T05:06:13;94874.72;;;12.08;100.00
12219;BME280;6172;42.646;23.344;2023-05-19T05:08:40;94873.81;;;12.15;100.00
12219;BME280;6172;42.646;23.344;2023-05-19T05:11:09;94860.59;;;12.33;100.00
12219;BME280;6172;42.646;23.344;2023-05-19T05:13:37;94869.06;;;12.19;100.00
12219;BME280;6172;42.646;23.344;2023-05-19T05:16:04;94869.75;;;12.23;100.00
12219;BME280;6172;42.646;23.344;2023-05-19T05:18:33;94870.25;;;12.37;100.00
12219;BME280;6172;42.646;23.344;2023-05-19T05:21:01;94868.72;;;12.36;100.00
12219;BME280;6172;42.646;23.344;2023-05-19T05:23:29;94872.94;;;12.60;100.00
12219;BME280;6172;42.646;23.344;2023-05-19T05:25:56;94863.06;;;12.47;100.00
12219;BME280;6172;42.646;23.344;2023-05-19T05:28:25;94859.91;;;12.48;100.00
12219;BME280;6172;42.646;23.344;2023-05-19T05:30:52;94870.53;;;12.82;100.00
12219;BME280;6172;42.646;23.344;2023-05-19T05:33:20;94870.22;;;12.96;100.00
12219;BME280;6172;42.646;23.344;2023-05-19T05:35:48;94863.25;;;13.11;100.00
12219;BME280;6172;42.646;23.344;2023-05-19T05:38:15;94855.84;;;13.92;100.00
12219;BME280;6172;42.646;23.344;2023-05-19T05:40:42;94863.44;;;14.86;100.00
12219;BME280;6172;42.646;23.344;2023-05-19T05:43:09;94848.16;;;16.75;100.00
12219;BME280;6172;42.646;23.344;2023-05-19T05:45:37;94837.34;;;17.90;100.00
12219;BME280;6172;42.646;23.344;2023-05-19T05:48:05;94840.28;;;18.14;100.00
12219;BME280;6172;42.646;23.344;2023-05-19T05:50:33;94842.09;;;20.14;81.67
12219;BME280;6172;42.646;23.344;2023-05-19T05:53:02;94834.19;;;21.26;65.98
12219;BME280;6172;42.646;23.344;2023-05-19T05:55:31;94839.06;;;21.17;65.16
12219;BME280;6172;42.646;23.344;2023-05-19T05:57:58;94851.47;;;21.50;63.21
12219;BME280;6172;42.646;23.344;2023-05-19T06:00:26;94851.44;;;23.20;55.14
12219;BME280;6172;42.646;23.344;2023-05-19T06:02:55;94855.88;;;22.86;55.23
12219;BME280;6172;42.646;23.344;2023-05-19T06:05:23;94859.03;;;22.54;54.70
12219;BME280;6172;42.646;23.344;2023-05-19T06:10:35;94859.16;;;23.98;49.98
12219;BME280;6172;42.646;23.344;2023-05-19T06:13:03;94863.13;;;22.04;53.68
12219;BME280;6172;42.646;23.344;2023-05-19T06:15:30;94865.56;;;21.82;54.83
12219;BME280;6172;42.646;23.344;2023-05-19T06:17:58;94856.19;;;22.48;51.96
12219;BME280;6172;42.646;23.344;2023-05-19T06:20:25;94854.56;;;24.90;45.96
12219;BME280;6172;42.646;23.344;2023-05-19T06:22:52;94860.22;;;24.48;46.30
12219;BME280;6172;42.646;23.344;2023-05-19T06:25:19;94850.34;;;24.05;47.12
12219;BME280;6172;42.646;23.344;2023-05-19T06:27:46;94866.75;;;22.90;50.98
12219;BME280;6172;42.646;23.344;2023-05-19T06:30:13;94858.94;;;22.68;51.26
12219;BME280;6172;42.646;23.344;2023-05-19T06:32:40;94857.97;;;24.10;47.23
12219;BME280;6172;42.646;23.344;2023-05-19T06:35:08;94861.88;;;24.77;44.63
12219;BME280;6172;42.646;23.344;2023-05-19T06:37:35;94859.72;;;22.69;48.77
12219;BME280;6172;42.646;23.344;2023-05-19T06:40:02;94864.75;;;24.40;45.94
12219;BME280;6172;42.646;23.344;2023-05-19T06:42:30;94858.72;;;24.53;44.99
12219;BME280;6172;42.646;23.344;2023-05-19T06:44:57;94855.19;;;24.52;43.39
12219;BME280;6172;42.646;23.344;2023-05-19T06:47:24;94867.09;;;24.11;43.85
12219;BME280;6172;42.646;23.344;2023-05-19T06:49:51;94860.72;;;23.42;45.57
12219;BME280;6172;42.646;23.344;2023-05-19T06:52:21;94867.00;;;23.63;45.46
12219;BME280;6172;42.646;23.344;2023-05-19T06:54:48;94859.41;;;24.00;44.10
12219;BME280;6172;42.646;23.344;2023-05-19T06:57:14;94864.91;;;23.89;43.56
12219;BME280;6172;42.646;23.344;2023-05-19T06:59:41;94875.38;;;23.68;44.79
12219;BME280;6172;42.646;23.344;2023-05-19T07:02:10;94871.00;;;24.77;42.00
12219;BME280;6172;42.646;23.344;2023-05-19T07:04:37;94862.00;;;25.15;38.98
12219;BME280;6172;42.646;23.344;2023-05-19T07:07:05;94867.78;;;24.95;39.61
12219;BME280;6172;42.646;23.344;2023-05-19T07:09:33;94873.16;;;23.47;44.04
12219;BME280;6172;42.646;23.344;2023-05-19T07:12:00;94880.84;;;19.81;51.53
12219;BME280;6172;42.646;23.344;2023-05-19T07:14:27;94882.34;;;19.49;59.11
12219;BME280;6172;42.646;23.344;2023-05-19T07:16:54;94882.22;;;21.82;53.02
12219;BME280;6172;42.646;23.344;2023-05-19T07:19:20;94886.78;;;22.94;47.79
12219;BME280;6172;42.646;23.344;2023-05-19T07:21:48;94877.41;;;24.36;43.58
12219;BME280;6172;42.646;23.344;2023-05-19T07:24:15;94891.50;;;22.28;47.30
12219;BME280;6172;42.646;23.344;2023-05-19T07:26:44;94885.97;;;22.48;48.09
12219;BME280;6172;42.646;23.344;2023-05-19T07:29:11;94893.16;;;21.27;50.30
12219;BME280;6172;42.646;23.344;2023-05-19T07:31:38;94890.81;;;20.58;53.38
12219;BME280;6172;42.646;23.344;2023-05-19T07:34:04;94885.78;;;19.77;56.31
12219;BME280;6172;42.646;23.344;2023-05-19T07:36:31;94885.19;;;20.29;58.98
12219;BME280;6172;42.646;23.344;2023-05-19T07:38:58;94885.84;;;20.24;59.80
12219;BME280;6172;42.646;23.344;2023-05-19T07:41:25;94878.78;;;20.23;58.72
12219;BME280;6172;42.646;23.344;2023-05-19T07:43:53;94883.66;;;20.28;59.00
12219;BME280;6172;42.646;23.344;2023-05-19T07:46:20;94877.69;;;19.97;61.97
12219;BME280;6172;42.646;23.344;2023-05-19T07:48:47;94880.19;;;19.86;64.86
12219;BME280;6172;42.646;23.344;2023-05-19T07:51:14;94889.81;;;20.70;62.29
12219;BME280;6172;42.646;23.344;2023-05-19T07:53:41;94883.03;;;22.37;51.58
12219;BME280;6172;42.646;23.344;2023-05-19T07:56:08;94874.53;;;22.06;51.86
12219;BME280;6172;42.646;23.344;2023-05-19T07:58:34;94875.09;;;22.10;52.59
12219;BME280;6172;42.646;23.344;2023-05-19T08:01:04;94881.19;;;23.14;48.56
12219;BME280;6172;42.646;23.344;2023-05-19T08:03:30;94879.06;;;24.64;44.38
12219;BME280;6172;42.646;23.344;2023-05-19T08:05:58;94875.22;;;24.62;43.33
12219;BME280;6172;42.646;23.344;2023-05-19T08:08:25;94875.91;;;23.41;45.11
12219;BME280;6172;42.646;23.344;2023-05-19T08:10:53;94878.00;;;23.52;45.66
12219;BME280;6172;42.646;23.344;2023-05-19T08:13:20;94872.56;;;23.37;46.24
12219;BME280;6172;42.646;23.344;2023-05-19T08:52:18;94867.66;;;20.70;52.73
12219;BME280;6172;42.646;23.344;2023-05-19T08:54:52;94870.59;;;21.34;52.92
12219;BME280;6172;42.646;23.344;2023-05-19T08:57:20;94870.72;;;21.89;52.05
12219;BME280;6172;42.646;23.344;2023-05-19T08:59:49;94866.84;;;21.51;52.37
12219;BME280;6172;42.646;23.344;2023-05-19T09:02:17;94866.88;;;20.32;54.99
12219;BME280;6172;42.646;23.344;2023-05-19T09:04:44;94871.44;;;20.82;56.67
12219;BME280;6172;42.646;23.344;2023-05-19T09:07:14;94862.56;;;21.50;52.17
12219;BME280;6172;42.646;23.344;2023-05-19T09:09:41;94865.81;;;21.49;51.12
12219;BME280;6172;42.646;23.344;2023-05-19T09:12:08;94858.19;;;21.15;53.86
12219;BME280;6172;42.646;23.344;2023-05-19T09:14:36;94865.22;;;20.49;56.67
12219;BME280;6172;42.646;23.344;2023-05-19T09:17:03;94859.75;;;20.40;56.82
12219;BME280;6172;42.646;23.344;2023-05-19T09:19:30;94856.69;;;20.14;60.27
12219;BME280;6172;42.646;23.344;2023-05-19T09:21:58;94854.31;;;19.98;59.24
12219;BME280;6172;42.646;23.344;2023-05-19T09:24:27;94842.69;;;20.94;58.83
12219;BME280;6172;42.646;23.344;2023-05-19T09:26:55;94841.72;;;21.26;57.25
12219;BME280;6172;42.646;23.344;2023-05-19T09:29:22;94846.09;;;21.61;56.35
12219;BME280;6172;42.646;23.344;2023-05-19T09:31:49;94850.91;;;21.17;53.95
12219;BME280;6172;42.646;23.344;2023-05-19T09:34:16;94843.63;;;21.20;52.83
12219;BME280;6172;42.646;23.344;2023-05-19T09:36:45;94839.50;;;21.44;54.79
12219;BME280;6172;42.646;23.344;2023-05-19T09:39:14;94844.66;;;22.01;54.69
12219;BME280;6172;42.646;23.344;2023-05-19T09:41:43;94849.75;;;21.38;54.49
12219;BME280;6172;42.646;23.344;2023-05-19T09:44:20;94835.81;;;22.17;50.95
12219;BME280;6172;42.646;23.344;2023-05-19T09:46:48;94846.19;;;22.02;49.04
12219;BME280;6172;42.646;23.344;2023-05-19T09:49:20;94844.97;;;21.68;48.58
12219;BME280;6172;42.646;23.344;2023-05-19T09:51:52;94844.94;;;22.37;47.24
12219;BME280;6172;42.646;23.344;2023-05-19T09:54:20;94837.47;;;23.14;46.85
12219;BME280;6172;42.646;23.344;2023-05-19T09:56:56;94832.50;;;22.98;46.79
12219;BME280;6172;42.646;23.344;2023-05-19T09:59:24;94836.28;;;22.95;48.56
12219;BME280;6172;42.646;23.344;2023-05-19T10:01:53;94824.91;;;23.55;45.98
12219;BME280;6172;42.646;23.344;2023-05-19T10:04:21;94827.34;;;23.68;44.04
12219;BME280;6172;42.646;23.344;2023-05-19T10:06:49;94823.19;;;23.94;42.85
12219;BME280;6172;42.646;23.344;2023-05-19T10:09:21;94819.19;;;23.64;43.77
12219;BME280;6172;42.646;23.344;2023-05-19T10:11:51;94821.78;;;23.68;45.99
12219;BME280;6172;42.646;23.344;2023-05-19T10:14:21;94829.63;;;23.69;45.47
12219;BME280;6172;42.646;23.344;2023-05-19T10:16:50;94825.63;;;23.19;46.12
12219;BME280;6172;42.646;23.344;2023-05-19T10:19:19;94811.91;;;22.85;47.20
12219;BME280;6172;42.646;23.344;2023-05-19T10:21:46;94825.09;;;21.55;49.35
12219;BME280;6172;42.646;23.344;2023-05-19T10:24:13;94811.50;;;22.72;45.58
12219;BME280;6172;42.646;23.344;2023-05-19T10:26:43;94810.88;;;23.39;43.67
12219;BME280;6172;42.646;23.344;2023-05-19T10:29:14;94815.00;;;23.49;43.43
12219;BME280;6172;42.646;23.344;2023-05-19T10:31:43;94803.88;;;23.49;43.09
12219;BME280;6172;42.646;23.344;2023-05-19T10:34:25;94809.78;;;22.14;46.75
12219;BME280;6172;42.646;23.344;2023-05-19T10:37:02;94807.13;;;22.91;46.31
12219;BME280;6172;42.646;23.344;2023-05-19T10:39:34;94801.06;;;22.41;44.85
12219;BME280;6172;42.646;23.344;2023-05-19T10:42:07;94801.09;;;22.92;44.12
12219;BME280;6172;42.646;23.344;2023-05-19T10:44:49;94805.88;;;22.06;44.05
12219;BME280;6172;42.646;23.344;2023-05-19T10:47:22;94800.63;;;21.53;46.96
12219;BME280;6172;42.646;23.344;2023-05-19T10:49:51;94792.53;;;21.06;48.36
12219;BME280;6172;42.646;23.344;2023-05-19T10:52:19;94805.63;;;20.91;49.59
12219;BME280;6172;42.646;23.344;2023-05-19T10:54:47;94800.16;;;20.30;52.16
12219;BME280;6172;42.646;23.344;2023-05-19T10:57:14;94794.34;;;20.42;55.02
12219;BME280;6172;42.646;23.344;2023-05-19T10:59:43;94793.72;;;20.62;56.26
12219;BME280;6172;42.646;23.344;2023-05-19T11:02:10;94791.81;;;21.40;52.30
12219;BME280;6172;42.646;23.344;2023-05-19T11:05:06;94787.59;;;21.45;48.73
12219;BME280;6172;42.646;23.344;2023-05-19T11:07:33;94786.41;;;21.51;48.71
12219;BME280;6172;42.646;23.344;2023-05-19T11:10:04;94791.09;;;21.95;48.46
12219;BME280;6172;42.646;23.344;2023-05-19T11:12:39;94794.28;;;22.08;46.27
12219;BME280;6172;42.646;23.344;2023-05-19T11:15:10;94801.16;;;21.43;45.10
12219;BME280;6172;42.646;23.344;2023-05-19T11:17:38;94795.09;;;21.24;44.42
12219;BME280;6172;42.646;23.344;2023-05-19T11:22:36;94791.00;;;22.24;41.45
12219;BME280;6172;42.646;23.344;2023-05-19T11:25:03;94785.13;;;21.82;43.42
12219;BME280;6172;42.646;23.344;2023-05-19T11:27:32;94779.47;;;21.56;44.98
12219;BME280;6172;42.646;23.344;2023-05-19T11:30:10;94776.25;;;21.98;41.07
12219;BME280;6172;42.646;23.344;2023-05-19T11:32:39;94780.41;;;22.08;43.88
12219;BME280;6172;42.646;23.344;2023-05-19T11:35:07;94776.00;;;20.97;45.37
12219;BME280;6172;42.646;23.344;2023-05-19T11:37:35;94780.00;;;20.29;47.98
12219;BME280;6172;42.646;23.344;2023-05-19T11:40:05;94781.72;;;20.65;47.34
12219;BME280;6172;42.646;23.344;2023-05-19T11:42:33;94788.44;;;20.35;49.64
12219;BME280;6172;42.646;23.344;2023-05-19T11:45:01;94797.97;;;19.63;54.38
12219;BME280;6172;42.646;23.344;2023-05-19T11:47:30;94811.50;;;18.42;89.24
12219;BME280;6172;42.646;23.344;2023-05-19T11:49:57;94845.97;;;16.48;100.00
12219;BME280;6172;42.646;23.344;2023-05-19T11:52:25;94871.50;;;15.18;100.00
12219;BME280;6172;42.646;23.344;2023-05-19T11:54:52;94875.66;;;14.69;100.00
12219;BME280;6172;42.646;23.344;2023-05-19T11:57:19;94868.75;;;14.36;100.00
12219;BME280;6172;42.646;23.344;2023-05-19T11:59:46;94860.94;;;14.06;100.00
12219;BME280;6172;42.646;23.344;2023-05-19T12:02:18;94854.03;;;13.85;100.00
12219;BME280;6172;42.646;23.344;2023-05-19T12:04:47;94893.94;;;13.54;100.00
12219;BME280;6172;42.646;23.344;2023-05-19T12:07:15;94921.88;;;13.30;100.00
12219;BME280;6172;42.646;23.344;2023-05-19T12:09:43;94938.88;;;13.21;100.00
12219;BME280;6172;42.646;23.344;2023-05-19T12:12:12;94940.13;;;13.17;100.00
12219;BME280;6172;42.646;23.344;2023-05-19T12:14:41;94939.66;;;13.02;100.00
12219;BME280;6172;42.646;23.344;2023-05-19T12:17:14;94942.69;;;12.88;100.00
12219;BME280;6172;42.646;23.344;2023-05-19T12:19:42;94961.00;;;12.91;100.00
12219;BME280;6172;42.646;23.344;2023-05-19T12:22:11;94944.91;;;12.77;100.00
12219;BME280;6172;42.646;23.344;2023-05-19T12:24:38;94939.69;;;12.63;100.00
12219;BME280;6172;42.646;23.344;2023-05-19T12:27:09;94927.38;;;12.51;100.00
12219;BME280;6172;42.646;23.344;2023-05-19T12:29:37;94923.59;;;12.45;100.00
12219;BME280;6172;42.646;23.344;2023-05-19T12:32:05;94922.56;;;12.59;100.00
12219;BME280;6172;42.646;23.344;2023-05-19T12:34:34;94918.72;;;12.76;100.00
12219;BME280;6172;42.646;23.344;2023-05-19T12:37:02;94913.41;;;12.89;100.00
12219;BME280;6172;42.646;23.344;2023-05-19T12:39:31;94910.97;;;13.10;100.00
12219;BME280;6172;42.646;23.344;2023-05-19T12:42:01;94891.09;;;13.42;100.00
12219;BME280;6172;42.646;23.344;2023-05-19T12:44:28;94885.81;;;13.67;100.00
12219;BME280;6172;42.646;23.344;2023-05-19T12:46:56;94869.00;;;13.97;100.00
12219;BME280;6172;42.646;23.344;2023-05-19T12:49:23;94865.72;;;14.18;100.00
12219;BME280;6172;42.646;23.344;2023-05-19T12:51:51;94847.16;;;14.38;100.00
12219;BME280;6172;42.646;23.344;2023-05-19T12:54:19;94833.28;;;14.57;100.00
12219;BME280;6172;42.646;23.344;2023-05-19T12:56:51;94835.28;;;14.69;100.00
12219;BME280;6172;42.646;23.344;2023-05-19T12:59:22;94831.06;;;14.81;100.00
12219;BME280;6172;42.646;23.344;2023-05-19T13:01:55;94823.81;;;14.87;100.00
12219;BME280;6172;42.646;23.344;2023-05-19T13:04:23;94820.66;;;15.01;100.00
12219;BME280;6172;42.646;23.344;2023-05-19T13:06:50;94820.75;;;15.35;100.00
12219;BME280;6172;42.646;23.344;2023-05-19T13:09:17;94809.06;;;15.56;100.00
12219;BME280;6172;42.646;23.344;2023-05-19T13:11:45;94814.00;;;15.86;100.00
12219;BME280;6172;42.646;23.344;2023-05-19T13:14:17;94810.97;;;16.27;100.00
12219;BME280;6172;42.646;23.344;2023-05-19T13:16:44;94807.44;;;16.48;100.00
12219;BME280;6172;42.646;23.344;2023-05-19T13:19:12;94800.09;;;16.67;100.00
12219;BME280;6172;42.646;23.344;2023-05-19T13:21:39;94803.19;;;16.69;100.00
12219;BME280;6172;42.646;23.344;2023-05-19T13:24:06;94798.88;;;16.89;95.82
12219;BME280;6172;42.646;23.344;2023-05-19T13:26:33;94794.66;;;17.06;89.21
12219;BME280;6172;42.646;23.344;2023-05-19T13:29:01;94790.84;;;17.13;84.89
12219;BME280;6172;42.646;23.344;2023-05-19T13:31:29;94787.16;;;17.07;80.53
12219;BME280;6172;42.646;23.344;2023-05-19T13:33:56;94798.94;;;17.07;76.04
12219;BME280;6172;42.646;23.344;2023-05-19T13:36:24;94788.19;;;17.00;73.72
12219;BME280;6172;42.646;23.344;2023-05-19T13:38:51;94783.31;;;17.04;71.95
12219;BME280;6172;42.646;23.344;2023-05-19T13:41:22;94795.84;;;16.96;75.42
12219;BME280;6172;42.646;23.344;2023-05-19T13:43:49;94785.28;;;16.95;77.57
12219;BME280;6172;42.646;23.344;2023-05-19T13:46:15;94792.47;;;16.92;76.63